sensor_id;sensor_type;location;lat;lon;timestamp;P1;durP1;ratioP1;P2;durP2;ratioP2
39518;SDS011;25200;53.394;10.414;2023-04-03T00:00:55;5.63;;;1.50;;
39518;SDS011;25200;53.394;10.414;2023-04-03T00:03:22;5.35;;;1.30;;
39518;SDS011;25200;53.394;10.414;2023-04-03T00:05:48;4.60;;;1.45;;
39518;SDS011;25200;53.394;10.414;2023-04-03T00:08:14;5.53;;;1.40;;
39518;SDS011;25200;53.394;10.414;2023-04-03T00:10:40;4.72;;;1.35;;
39518;SDS011;25200;53.394;10.414;2023-04-03T00:13:06;7.05;;;1.70;;
39518;SDS011;25200;53.394;10.414;2023-04-03T00:15:33;8.32;;;1.90;;
39518;SDS011;25200;53.394;10.414;2023-04-03T00:17:59;6.47;;;1.52;;
39518;SDS011;25200;53.394;10.414;2023-04-03T00:20:25;6.97;;;2.00;;
39518;SDS011;25200;53.394;10.414;2023-04-03T00:22:52;4.75;;;1.70;;
39518;SDS011;25200;53.394;10.414;2023-04-03T00:25:18;5.38;;;1.67;;
39518;SDS011;25200;53.394;10.414;2023-04-03T00:27:44;7.35;;;1.73;;
39518;SDS011;25200;53.394;10.414;2023-04-03T00:30:10;4.05;;;1.60;;
39518;SDS011;25200;53.394;10.414;2023-04-03T00:32:38;4.25;;;1.80;;
39518;SDS011;25200;53.394;10.414;2023-04-03T00:35:04;7.35;;;2.00;;
39518;SDS011;25200;53.394;10.414;2023-04-03T00:37:30;3.75;;;1.30;;
39518;SDS011;25200;53.394;10.414;2023-04-03T00:39:56;5.50;;;1.80;;
39518;SDS011;25200;53.394;10.414;2023-04-03T00:42:21;6.25;;;1.77;;
39518;SDS011;25200;53.394;10.414;2023-04-03T00:47:13;4.32;;;1.67;;
39518;SDS011;25200;53.394;10.414;2023-04-03T00:49:41;6.82;;;1.55;;
39518;SDS011;25200;53.394;10.414;2023-04-03T00:52:10;5.47;;;1.55;;
39518;SDS011;25200;53.394;10.414;2023-04-03T00:54:39;6.72;;;1.60;;
39518;SDS011;25200;53.394;10.414;2023-04-03T00:57:07;4.05;;;1.55;;
39518;SDS011;25200;53.394;10.414;2023-04-03T00:59:36;5.13;;;1.52;;
39518;SDS011;25200;53.394;10.414;2023-04-03T01:02:07;4.90;;;1.55;;
39518;SDS011;25200;53.394;10.414;2023-04-03T01:07:02;5.43;;;1.60;;
39518;SDS011;25200;53.394;10.414;2023-04-03T01:09:32;5.25;;;1.33;;
39518;SDS011;25200;53.394;10.414;2023-04-03T01:12:12;3.80;;;1.33;;
39518;SDS011;25200;53.394;10.414;2023-04-03T01:14:42;3.35;;;1.38;;
39518;SDS011;25200;53.394;10.414;2023-04-03T01:17:24;6.70;;;1.70;;
39518;SDS011;25200;53.394;10.414;2023-04-03T01:19:54;7.00;;;1.27;;
39518;SDS011;25200;53.394;10.414;2023-04-03T01:25:07;4.45;;;1.35;;
39518;SDS011;25200;53.394;10.414;2023-04-03T01:27:33;7.15;;;2.08;;
39518;SDS011;25200;53.394;10.414;2023-04-03T01:29:58;6.72;;;1.77;;
39518;SDS011;25200;53.394;10.414;2023-04-03T01:32:24;6.38;;;1.70;;
39518;SDS011;25200;53.394;10.414;2023-04-03T01:34:50;5.07;;;1.45;;
39518;SDS011;25200;53.394;10.414;2023-04-03T01:37:15;5.40;;;1.40;;
39518;SDS011;25200;53.394;10.414;2023-04-03T01:39:41;7.43;;;1.92;;
39518;SDS011;25200;53.394;10.414;2023-04-03T01:42:06;4.22;;;1.33;;
39518;SDS011;25200;53.394;10.414;2023-04-03T01:44:32;7.00;;;1.60;;
39518;SDS011;25200;53.394;10.414;2023-04-03T01:46:58;9.68;;;2.30;;
39518;SDS011;25200;53.394;10.414;2023-04-03T01:49:23;8.73;;;1.98;;
39518;SDS011;25200;53.394;10.414;2023-04-03T01:51:49;6.30;;;1.75;;
39518;SDS011;25200;53.394;10.414;2023-04-03T01:54:14;6.22;;;1.70;;
39518;SDS011;25200;53.394;10.414;2023-04-03T01:56:40;7.82;;;1.90;;
39518;SDS011;25200;53.394;10.414;2023-04-03T01:59:06;3.17;;;1.20;;
39518;SDS011;25200;53.394;10.414;2023-04-03T02:01:31;5.13;;;1.58;;
39518;SDS011;25200;53.394;10.414;2023-04-03T02:03:57;5.00;;;1.77;;
39518;SDS011;25200;53.394;10.414;2023-04-03T02:06:23;6.90;;;1.60;;
39518;SDS011;25200;53.394;10.414;2023-04-03T02:08:48;6.10;;;1.52;;
39518;SDS011;25200;53.394;10.414;2023-04-03T02:11:14;6.43;;;1.50;;
39518;SDS011;25200;53.394;10.414;2023-04-03T02:13:40;6.32;;;1.55;;
39518;SDS011;25200;53.394;10.414;2023-04-03T02:16:06;8.52;;;1.67;;
39518;SDS011;25200;53.394;10.414;2023-04-03T02:18:36;6.40;;;1.63;;
39518;SDS011;25200;53.394;10.414;2023-04-03T02:21:01;3.95;;;1.52;;
39518;SDS011;25200;53.394;10.414;2023-04-03T02:23:27;5.40;;;1.60;;
39518;SDS011;25200;53.394;10.414;2023-04-03T02:25:53;5.68;;;1.52;;
39518;SDS011;25200;53.394;10.414;2023-04-03T02:28:26;8.30;;;1.58;;
39518;SDS011;25200;53.394;10.414;2023-04-03T02:30:52;6.20;;;1.58;;
39518;SDS011;25200;53.394;10.414;2023-04-03T02:33:18;4.80;;;1.30;;
39518;SDS011;25200;53.394;10.414;2023-04-03T02:35:43;7.05;;;1.40;;
39518;SDS011;25200;53.394;10.414;2023-04-03T02:38:11;4.43;;;1.67;;
39518;SDS011;25200;53.394;10.414;2023-04-03T02:40:37;4.75;;;1.40;;
39518;SDS011;25200;53.394;10.414;2023-04-03T02:43:02;9.32;;;1.55;;
39518;SDS011;25200;53.394;10.414;2023-04-03T02:45:28;3.65;;;1.23;;
39518;SDS011;25200;53.394;10.414;2023-04-03T02:47:54;4.45;;;1.63;;
39518;SDS011;25200;53.394;10.414;2023-04-03T02:50:19;4.25;;;1.48;;
39518;SDS011;25200;53.394;10.414;2023-04-03T02:52:45;5.38;;;1.40;;
39518;SDS011;25200;53.394;10.414;2023-04-03T02:55:13;7.07;;;1.60;;
39518;SDS011;25200;53.394;10.414;2023-04-03T02:57:40;5.90;;;2.10;;
39518;SDS011;25200;53.394;10.414;2023-04-03T03:00:06;5.50;;;1.77;;
39518;SDS011;25200;53.394;10.414;2023-04-03T03:02:33;5.40;;;1.40;;
39518;SDS011;25200;53.394;10.414;2023-04-03T03:04:59;4.45;;;1.60;;
39518;SDS011;25200;53.394;10.414;2023-04-03T03:07:25;2.85;;;1.25;;
39518;SDS011;25200;53.394;10.414;2023-04-03T03:09:51;4.47;;;1.65;;
39518;SDS011;25200;53.394;10.414;2023-04-03T03:12:16;6.43;;;1.77;;
39518;SDS011;25200;53.394;10.414;2023-04-03T03:14:46;4.30;;;1.40;;
39518;SDS011;25200;53.394;10.414;2023-04-03T03:17:12;4.80;;;1.60;;
39518;SDS011;25200;53.394;10.414;2023-04-03T03:19:38;6.95;;;1.58;;
39518;SDS011;25200;53.394;10.414;2023-04-03T03:22:04;10.05;;;1.80;;
39518;SDS011;25200;53.394;10.414;2023-04-03T03:24:30;4.82;;;1.45;;
39518;SDS011;25200;53.394;10.414;2023-04-03T03:26:55;6.25;;;1.42;;
39518;SDS011;25200;53.394;10.414;2023-04-03T03:29:21;7.25;;;1.80;;
39518;SDS011;25200;53.394;10.414;2023-04-03T03:31:47;4.47;;;1.50;;
39518;SDS011;25200;53.394;10.414;2023-04-03T03:34:12;6.30;;;1.60;;
39518;SDS011;25200;53.394;10.414;2023-04-03T03:36:38;5.60;;;1.65;;
39518;SDS011;25200;53.394;10.414;2023-04-03T03:39:04;6.43;;;2.00;;
39518;SDS011;25200;53.394;10.414;2023-04-03T03:41:30;5.20;;;1.60;;
39518;SDS011;25200;53.394;10.414;2023-04-03T03:43:56;5.05;;;1.52;;
39518;SDS011;25200;53.394;10.414;2023-04-03T03:46:22;8.85;;;2.38;;
39518;SDS011;25200;53.394;10.414;2023-04-03T03:48:47;6.63;;;2.15;;
39518;SDS011;25200;53.394;10.414;2023-04-03T03:51:13;5.88;;;1.88;;
39518;SDS011;25200;53.394;10.414;2023-04-03T03:53:39;6.05;;;1.90;;
39518;SDS011;25200;53.394;10.414;2023-04-03T03:56:05;8.25;;;1.60;;
39518;SDS011;25200;53.394;10.414;2023-04-03T03:58:31;7.20;;;1.58;;
39518;SDS011;25200;53.394;10.414;2023-04-03T04:01:00;4.95;;;1.77;;
39518;SDS011;25200;53.394;10.414;2023-04-03T04:03:27;4.93;;;1.60;;
39518;SDS011;25200;53.394;10.414;2023-04-03T04:05:52;7.22;;;1.60;;
39518;SDS011;25200;53.394;10.414;2023-04-03T04:08:18;3.97;;;1.35;;
39518;SDS011;25200;53.394;10.414;2023-04-03T04:10:44;3.53;;;1.40;;
39518;SDS011;25200;53.394;10.414;2023-04-03T04:13:09;4.47;;;1.58;;
39518;SDS011;25200;53.394;10.414;2023-04-03T04:15:35;3.92;;;1.45;;
39518;SDS011;25200;53.394;10.414;2023-04-03T04:18:01;4.75;;;1.23;;
39518;SDS011;25200;53.394;10.414;2023-04-03T04:20:27;9.55;;;2.13;;
39518;SDS011;25200;53.394;10.414;2023-04-03T04:22:52;5.53;;;1.20;;
39518;SDS011;25200;53.394;10.414;2023-04-03T04:25:18;7.00;;;1.40;;
39518;SDS011;25200;53.394;10.414;2023-04-03T04:27:44;6.20;;;1.60;;
39518;SDS011;25200;53.394;10.414;2023-04-03T04:30:09;8.00;;;1.55;;
39518;SDS011;25200;53.394;10.414;2023-04-03T04:32:36;4.63;;;1.42;;
39518;SDS011;25200;53.394;10.414;2023-04-03T04:35:02;3.30;;;1.10;;
39518;SDS011;25200;53.394;10.414;2023-04-03T04:37:29;6.55;;;1.27;;
39518;SDS011;25200;53.394;10.414;2023-04-03T04:39:55;6.07;;;1.38;;
39518;SDS011;25200;53.394;10.414;2023-04-03T04:42:20;4.60;;;1.20;;
39518;SDS011;25200;53.394;10.414;2023-04-03T04:44:46;3.97;;;1.20;;
39518;SDS011;25200;53.394;10.414;2023-04-03T04:47:12;2.63;;;1.00;;
39518;SDS011;25200;53.394;10.414;2023-04-03T04:49:37;6.13;;;1.63;;
39518;SDS011;25200;53.394;10.414;2023-04-03T04:52:03;6.30;;;1.50;;
39518;SDS011;25200;53.394;10.414;2023-04-03T04:54:29;2.22;;;0.93;;
39518;SDS011;25200;53.394;10.414;2023-04-03T04:56:54;3.03;;;1.30;;
39518;SDS011;25200;53.394;10.414;2023-04-03T04:59:20;2.83;;;1.02;;
39518;SDS011;25200;53.394;10.414;2023-04-03T05:01:46;3.65;;;1.17;;
39518;SDS011;25200;53.394;10.414;2023-04-03T05:04:12;8.57;;;1.40;;
39518;SDS011;25200;53.394;10.414;2023-04-03T05:06:38;4.55;;;1.25;;
39518;SDS011;25200;53.394;10.414;2023-04-03T05:09:04;7.20;;;1.80;;
39518;SDS011;25200;53.394;10.414;2023-04-03T05:11:30;7.55;;;1.38;;
39518;SDS011;25200;53.394;10.414;2023-04-03T05:13:55;5.47;;;1.27;;
39518;SDS011;25200;53.394;10.414;2023-04-03T05:16:21;2.92;;;1.25;;
39518;SDS011;25200;53.394;10.414;2023-04-03T05:18:47;5.47;;;1.27;;
39518;SDS011;25200;53.394;10.414;2023-04-03T05:21:12;5.28;;;1.30;;
39518;SDS011;25200;53.394;10.414;2023-04-03T05:23:38;4.07;;;1.02;;
39518;SDS011;25200;53.394;10.414;2023-04-03T05:26:04;4.93;;;1.10;;
39518;SDS011;25200;53.394;10.414;2023-04-03T05:28:30;6.22;;;1.60;;
39518;SDS011;25200;53.394;10.414;2023-04-03T05:30:56;2.45;;;1.20;;
39518;SDS011;25200;53.394;10.414;2023-04-03T05:33:23;4.03;;;1.35;;
39518;SDS011;25200;53.394;10.414;2023-04-03T05:35:51;4.00;;;1.00;;
39518;SDS011;25200;53.394;10.414;2023-04-03T05:38:17;2.60;;;1.02;;
39518;SDS011;25200;53.394;10.414;2023-04-03T05:40:43;4.13;;;1.17;;
39518;SDS011;25200;53.394;10.414;2023-04-03T05:43:09;6.88;;;1.05;;
39518;SDS011;25200;53.394;10.414;2023-04-03T05:45:35;4.28;;;1.20;;
39518;SDS011;25200;53.394;10.414;2023-04-03T05:48:00;2.22;;;0.80;;
39518;SDS011;25200;53.394;10.414;2023-04-03T05:50:26;4.05;;;1.30;;
39518;SDS011;25200;53.394;10.414;2023-04-03T05:52:52;3.55;;;1.30;;
39518;SDS011;25200;53.394;10.414;2023-04-03T05:55:21;6.15;;;1.13;;
39518;SDS011;25200;53.394;10.414;2023-04-03T05:57:47;4.75;;;1.15;;
39518;SDS011;25200;53.394;10.414;2023-04-03T06:00:14;4.75;;;1.00;;
39518;SDS011;25200;53.394;10.414;2023-04-03T06:02:40;1.83;;;0.88;;
39518;SDS011;25200;53.394;10.414;2023-04-03T06:05:07;2.63;;;0.93;;
39518;SDS011;25200;53.394;10.414;2023-04-03T06:07:34;3.25;;;1.30;;
39518;SDS011;25200;53.394;10.414;2023-04-03T06:10:00;4.95;;;1.30;;
39518;SDS011;25200;53.394;10.414;2023-04-03T06:12:27;4.18;;;1.02;;
39518;SDS011;25200;53.394;10.414;2023-04-03T06:14:54;4.45;;;1.27;;
39518;SDS011;25200;53.394;10.414;2023-04-03T06:17:20;6.38;;;1.48;;
39518;SDS011;25200;53.394;10.414;2023-04-03T06:19:46;5.50;;;1.20;;
39518;SDS011;25200;53.394;10.414;2023-04-03T06:22:12;5.50;;;0.95;;
39518;SDS011;25200;53.394;10.414;2023-04-03T06:24:38;4.60;;;1.30;;
39518;SDS011;25200;53.394;10.414;2023-04-03T06:27:05;2.90;;;1.08;;
39518;SDS011;25200;53.394;10.414;2023-04-03T06:29:30;6.28;;;1.40;;
39518;SDS011;25200;53.394;10.414;2023-04-03T06:31:56;6.10;;;1.20;;
39518;SDS011;25200;53.394;10.414;2023-04-03T06:34:22;7.10;;;1.20;;
39518;SDS011;25200;53.394;10.414;2023-04-03T06:36:48;2.65;;;0.90;;
39518;SDS011;25200;53.394;10.414;2023-04-03T06:39:18;6.07;;;1.23;;
39518;SDS011;25200;53.394;10.414;2023-04-03T06:41:46;5.00;;;1.15;;
39518;SDS011;25200;53.394;10.414;2023-04-03T06:44:11;4.13;;;1.20;;
39518;SDS011;25200;53.394;10.414;2023-04-03T06:46:40;4.47;;;1.10;;
39518;SDS011;25200;53.394;10.414;2023-04-03T06:49:06;4.53;;;1.05;;
39518;SDS011;25200;53.394;10.414;2023-04-03T06:51:35;8.63;;;1.40;;
39518;SDS011;25200;53.394;10.414;2023-04-03T06:54:02;6.65;;;1.23;;
39518;SDS011;25200;53.394;10.414;2023-04-03T06:56:28;8.18;;;1.17;;
39518;SDS011;25200;53.394;10.414;2023-04-03T06:58:55;7.43;;;1.23;;
39518;SDS011;25200;53.394;10.414;2023-04-03T07:01:23;5.47;;;1.48;;
39518;SDS011;25200;53.394;10.414;2023-04-03T07:03:51;3.60;;;1.15;;
39518;SDS011;25200;53.394;10.414;2023-04-03T07:06:18;4.10;;;1.05;;
39518;SDS011;25200;53.394;10.414;2023-04-03T07:08:46;6.75;;;1.17;;
39518;SDS011;25200;53.394;10.414;2023-04-03T07:11:13;4.55;;;1.10;;
39518;SDS011;25200;53.394;10.414;2023-04-03T07:13:39;3.80;;;0.95;;
39518;SDS011;25200;53.394;10.414;2023-04-03T07:16:05;4.43;;;1.02;;
39518;SDS011;25200;53.394;10.414;2023-04-03T07:18:32;4.03;;;1.17;;
39518;SDS011;25200;53.394;10.414;2023-04-03T07:20:58;5.35;;;1.30;;
39518;SDS011;25200;53.394;10.414;2023-04-03T07:23:23;3.90;;;1.15;;
39518;SDS011;25200;53.394;10.414;2023-04-03T07:25:50;7.20;;;1.40;;
39518;SDS011;25200;53.394;10.414;2023-04-03T07:28:17;3.38;;;1.20;;
39518;SDS011;25200;53.394;10.414;2023-04-03T07:30:48;2.50;;;0.88;;
39518;SDS011;25200;53.394;10.414;2023-04-03T07:33:16;5.53;;;1.27;;
39518;SDS011;25200;53.394;10.414;2023-04-03T07:35:43;4.28;;;1.20;;
39518;SDS011;25200;53.394;10.414;2023-04-03T07:38:09;4.15;;;1.30;;
39518;SDS011;25200;53.394;10.414;2023-04-03T07:40:35;2.92;;;1.08;;
39518;SDS011;25200;53.394;10.414;2023-04-03T07:43:01;4.40;;;1.13;;
39518;SDS011;25200;53.394;10.414;2023-04-03T07:45:27;4.10;;;1.17;;
39518;SDS011;25200;53.394;10.414;2023-04-03T07:47:53;4.50;;;1.10;;
39518;SDS011;25200;53.394;10.414;2023-04-03T07:50:18;2.42;;;1.05;;
39518;SDS011;25200;53.394;10.414;2023-04-03T07:52:44;2.88;;;0.98;;
39518;SDS011;25200;53.394;10.414;2023-04-03T07:55:11;5.55;;;1.00;;
39518;SDS011;25200;53.394;10.414;2023-04-03T07:57:37;3.55;;;1.13;;
39518;SDS011;25200;53.394;10.414;2023-04-03T08:00:03;3.78;;;1.05;;
39518;SDS011;25200;53.394;10.414;2023-04-03T08:02:29;3.92;;;1.20;;
39518;SDS011;25200;53.394;10.414;2023-04-03T08:04:57;1.95;;;0.90;;
39518;SDS011;25200;53.394;10.414;2023-04-03T08:07:23;3.72;;;0.90;;
39518;SDS011;25200;53.394;10.414;2023-04-03T08:09:48;4.57;;;1.35;;
39518;SDS011;25200;53.394;10.414;2023-04-03T08:12:14;5.75;;;1.38;;
39518;SDS011;25200;53.394;10.414;2023-04-03T08:14:40;2.95;;;1.02;;
39518;SDS011;25200;53.394;10.414;2023-04-03T08:17:06;6.95;;;1.40;;
39518;SDS011;25200;53.394;10.414;2023-04-03T08:19:36;2.33;;;0.90;;
39518;SDS011;25200;53.394;10.414;2023-04-03T08:22:05;2.33;;;0.93;;
39518;SDS011;25200;53.394;10.414;2023-04-03T08:24:32;5.55;;;1.25;;
39518;SDS011;25200;53.394;10.414;2023-04-03T08:26:58;3.22;;;1.20;;
39518;SDS011;25200;53.394;10.414;2023-04-03T08:29:24;3.35;;;1.15;;
39518;SDS011;25200;53.394;10.414;2023-04-03T08:31:50;4.80;;;1.58;;
39518;SDS011;25200;53.394;10.414;2023-04-03T08:34:16;4.60;;;1.05;;
39518;SDS011;25200;53.394;10.414;2023-04-03T08:36:43;3.58;;;0.98;;
39518;SDS011;25200;53.394;10.414;2023-04-03T08:39:09;5.38;;;0.90;;
39518;SDS011;25200;53.394;10.414;2023-04-03T08:41:36;3.80;;;0.93;;
39518;SDS011;25200;53.394;10.414;2023-04-03T08:46:45;2.28;;;1.05;;
39518;SDS011;25200;53.394;10.414;2023-04-03T08:51:59;3.53;;;0.88;;
39518;SDS011;25200;53.394;10.414;2023-04-03T08:54:32;2.20;;;0.65;;
39518;SDS011;25200;53.394;10.414;2023-04-03T08:57:03;2.83;;;0.88;;
39518;SDS011;25200;53.394;10.414;2023-04-03T08:59:32;4.90;;;1.10;;
39518;SDS011;25200;53.394;10.414;2023-04-03T09:02:02;3.47;;;1.17;;
39518;SDS011;25200;53.394;10.414;2023-04-03T09:04:48;3.85;;;0.95;;
39518;SDS011;25200;53.394;10.414;2023-04-03T09:07:16;3.15;;;1.10;;
39518;SDS011;25200;53.394;10.414;2023-04-03T09:12:21;3.25;;;0.88;;
39518;SDS011;25200;53.394;10.414;2023-04-03T09:17:35;4.15;;;0.80;;
39518;SDS011;25200;53.394;10.414;2023-04-03T09:20:22;3.63;;;1.02;;
39518;SDS011;25200;53.394;10.414;2023-04-03T09:22:51;3.63;;;0.80;;
39518;SDS011;25200;53.394;10.414;2023-04-03T09:25:23;3.75;;;1.10;;
39518;SDS011;25200;53.394;10.414;2023-04-03T09:27:54;3.42;;;0.85;;
39518;SDS011;25200;53.394;10.414;2023-04-03T09:30:21;5.15;;;1.00;;
39518;SDS011;25200;53.394;10.414;2023-04-03T09:32:51;2.55;;;0.73;;
39518;SDS011;25200;53.394;10.414;2023-04-03T09:38:14;4.38;;;1.30;;
39518;SDS011;25200;53.394;10.414;2023-04-03T09:40:40;3.25;;;0.88;;
39518;SDS011;25200;53.394;10.414;2023-04-03T09:45:45;3.00;;;1.08;;
39518;SDS011;25200;53.394;10.414;2023-04-03T09:50:41;3.78;;;1.02;;
39518;SDS011;25200;53.394;10.414;2023-04-03T09:55:54;3.13;;;0.80;;
39518;SDS011;25200;53.394;10.414;2023-04-03T09:58:31;2.40;;;0.82;;
39518;SDS011;25200;53.394;10.414;2023-04-03T10:01:02;2.60;;;1.02;;
39518;SDS011;25200;53.394;10.414;2023-04-03T10:03:30;4.35;;;0.90;;
39518;SDS011;25200;53.394;10.414;2023-04-03T10:05:59;3.58;;;1.23;;
39518;SDS011;25200;53.394;10.414;2023-04-03T10:08:27;2.67;;;0.88;;
39518;SDS011;25200;53.394;10.414;2023-04-03T10:13:59;3.35;;;1.02;;
39518;SDS011;25200;53.394;10.414;2023-04-03T10:16:35;1.77;;;0.60;;
39518;SDS011;25200;53.394;10.414;2023-04-03T10:19:40;2.70;;;0.85;;
39518;SDS011;25200;53.394;10.414;2023-04-03T10:22:08;1.58;;;0.60;;
39518;SDS011;25200;53.394;10.414;2023-04-03T10:27:36;3.13;;;0.90;;
39518;SDS011;25200;53.394;10.414;2023-04-03T10:35:18;2.80;;;0.88;;
39518;SDS011;25200;53.394;10.414;2023-04-03T10:38:13;3.80;;;0.88;;
39518;SDS011;25200;53.394;10.414;2023-04-03T10:43:32;3.38;;;1.02;;
39518;SDS011;25200;53.394;10.414;2023-04-03T10:54:20;2.30;;;0.57;;
39518;SDS011;25200;53.394;10.414;2023-04-03T10:57:04;2.20;;;0.97;;
39518;SDS011;25200;53.394;10.414;2023-04-03T10:59:35;4.47;;;1.13;;
39518;SDS011;25200;53.394;10.414;2023-04-03T11:05:03;3.40;;;1.00;;
39518;SDS011;25200;53.394;10.414;2023-04-03T11:07:38;3.80;;;1.00;;
39518;SDS011;25200;53.394;10.414;2023-04-03T11:10:13;2.92;;;0.93;;
39518;SDS011;25200;53.394;10.414;2023-04-03T11:12:58;2.72;;;0.82;;
39518;SDS011;25200;53.394;10.414;2023-04-03T11:15:31;4.43;;;1.20;;
39518;SDS011;25200;53.394;10.414;2023-04-03T11:17:59;2.08;;;0.88;;
39518;SDS011;25200;53.394;10.414;2023-04-03T11:20:32;2.35;;;0.95;;
39518;SDS011;25200;53.394;10.414;2023-04-03T11:23:03;2.03;;;0.60;;
39518;SDS011;25200;53.394;10.414;2023-04-03T11:25:34;2.13;;;0.85;;
39518;SDS011;25200;53.394;10.414;2023-04-03T11:28:05;5.07;;;1.00;;
39518;SDS011;25200;53.394;10.414;2023-04-03T11:36:05;3.67;;;1.10;;
39518;SDS011;25200;53.394;10.414;2023-04-03T11:38:37;3.90;;;1.10;;
39518;SDS011;25200;53.394;10.414;2023-04-03T11:41:08;2.97;;;1.00;;
39518;SDS011;25200;53.394;10.414;2023-04-03T11:43:39;4.13;;;1.05;;
39518;SDS011;25200;53.394;10.414;2023-04-03T11:46:07;3.45;;;0.90;;
39518;SDS011;25200;53.394;10.414;2023-04-03T11:53:38;3.03;;;0.82;;
39518;SDS011;25200;53.394;10.414;2023-04-03T12:01:43;1.75;;;0.65;;
39518;SDS011;25200;53.394;10.414;2023-04-03T12:04:10;3.33;;;0.98;;
39518;SDS011;25200;53.394;10.414;2023-04-03T12:09:21;3.15;;;0.90;;
39518;SDS011;25200;53.394;10.414;2023-04-03T12:11:51;2.90;;;0.90;;
39518;SDS011;25200;53.394;10.414;2023-04-03T12:14:17;3.25;;;0.82;;
39518;SDS011;25200;53.394;10.414;2023-04-03T12:16:44;2.30;;;0.80;;
39518;SDS011;25200;53.394;10.414;2023-04-03T12:48:49;9.00;;;0.82;;
39518;SDS011;25200;53.394;10.414;2023-04-03T12:51:42;4.43;;;1.17;;
39518;SDS011;25200;53.394;10.414;2023-04-03T12:54:14;1.95;;;0.73;;
39518;SDS011;25200;53.394;10.414;2023-04-03T12:56:46;2.38;;;1.00;;
39518;SDS011;25200;53.394;10.414;2023-04-03T13:04:20;2.38;;;0.75;;
39518;SDS011;25200;53.394;10.414;2023-04-03T13:06:47;4.28;;;0.90;;
39518;SDS011;25200;53.394;10.414;2023-04-03T13:11:47;3.22;;;0.80;;
39518;SDS011;25200;53.394;10.414;2023-04-03T13:14:20;3.53;;;0.75;;
39518;SDS011;25200;53.394;10.414;2023-04-03T13:16:54;4.13;;;0.95;;
39518;SDS011;25200;53.394;10.414;2023-04-03T13:19:23;2.45;;;0.77;;
39518;SDS011;25200;53.394;10.414;2023-04-03T13:21:51;2.15;;;0.63;;
39518;SDS011;25200;53.394;10.414;2023-04-03T13:24:28;2.97;;;0.80;;
39518;SDS011;25200;53.394;10.414;2023-04-03T13:26:56;2.38;;;0.82;;
39518;SDS011;25200;53.394;10.414;2023-04-03T13:29:24;1.58;;;0.80;;
39518;SDS011;25200;53.394;10.414;2023-04-03T13:31:56;5.82;;;1.20;;
39518;SDS011;25200;53.394;10.414;2023-04-03T13:34:23;2.45;;;0.70;;
39518;SDS011;25200;53.394;10.414;2023-04-03T13:41:50;2.88;;;0.80;;
39518;SDS011;25200;53.394;10.414;2023-04-03T13:46:53;1.40;;;0.63;;
39518;SDS011;25200;53.394;10.414;2023-04-03T13:49:34;5.13;;;1.00;;
39518;SDS011;25200;53.394;10.414;2023-04-03T13:54:58;2.30;;;0.80;;
39518;SDS011;25200;53.394;10.414;2023-04-03T13:57:27;2.40;;;0.80;;
39518;SDS011;25200;53.394;10.414;2023-04-03T13:59:53;2.05;;;0.82;;
39518;SDS011;25200;53.394;10.414;2023-04-03T14:02:29;2.67;;;0.85;;
39518;SDS011;25200;53.394;10.414;2023-04-03T14:04:58;2.28;;;1.00;;
39518;SDS011;25200;53.394;10.414;2023-04-03T14:07:27;4.85;;;1.00;;
39518;SDS011;25200;53.394;10.414;2023-04-03T14:09:54;1.63;;;0.80;;
39518;SDS011;25200;53.394;10.414;2023-04-03T14:14:52;1.65;;;0.60;;
39518;SDS011;25200;53.394;10.414;2023-04-03T14:17:22;3.30;;;1.02;;
39518;SDS011;25200;53.394;10.414;2023-04-03T14:19:50;2.80;;;0.70;;
39518;SDS011;25200;53.394;10.414;2023-04-03T14:22:22;2.55;;;0.80;;
39518;SDS011;25200;53.394;10.414;2023-04-03T14:24:50;1.77;;;0.77;;
39518;SDS011;25200;53.394;10.414;2023-04-03T14:27:20;3.17;;;0.88;;
39518;SDS011;25200;53.394;10.414;2023-04-03T14:29:46;1.48;;;0.52;;
39518;SDS011;25200;53.394;10.414;2023-04-03T14:32:14;1.85;;;0.60;;
39518;SDS011;25200;53.394;10.414;2023-04-03T14:34:42;1.92;;;0.68;;
39518;SDS011;25200;53.394;10.414;2023-04-03T14:37:12;3.60;;;1.30;;
39518;SDS011;25200;53.394;10.414;2023-04-03T14:39:40;2.78;;;0.95;;
39518;SDS011;25200;53.394;10.414;2023-04-03T14:42:09;2.85;;;1.00;;
39518;SDS011;25200;53.394;10.414;2023-04-03T14:44:39;4.13;;;0.90;;
39518;SDS011;25200;53.394;10.414;2023-04-03T14:47:05;4.68;;;1.10;;
39518;SDS011;25200;53.394;10.414;2023-04-03T14:49:34;3.45;;;1.13;;
39518;SDS011;25200;53.394;10.414;2023-04-03T14:52:00;3.25;;;0.90;;
39518;SDS011;25200;53.394;10.414;2023-04-03T14:54:25;3.25;;;0.82;;
39518;SDS011;25200;53.394;10.414;2023-04-03T14:56:53;3.22;;;1.20;;
39518;SDS011;25200;53.394;10.414;2023-04-03T14:59:20;3.97;;;1.10;;
39518;SDS011;25200;53.394;10.414;2023-04-03T15:01:47;3.40;;;0.90;;
39518;SDS011;25200;53.394;10.414;2023-04-03T15:04:13;2.13;;;0.85;;
39518;SDS011;25200;53.394;10.414;2023-04-03T15:06:41;2.70;;;0.77;;
39518;SDS011;25200;53.394;10.414;2023-04-03T15:09:21;3.17;;;0.80;;
39518;SDS011;25200;53.394;10.414;2023-04-03T15:11:52;1.65;;;0.68;;
39518;SDS011;25200;53.394;10.414;2023-04-03T15:14:19;2.63;;;0.88;;
39518;SDS011;25200;53.394;10.414;2023-04-03T15:16:45;3.53;;;0.90;;
39518;SDS011;25200;53.394;10.414;2023-04-03T15:19:11;2.25;;;0.90;;
39518;SDS011;25200;53.394;10.414;2023-04-03T15:21:38;3.90;;;1.20;;
39518;SDS011;25200;53.394;10.414;2023-04-03T15:24:03;4.78;;;1.08;;
39518;SDS011;25200;53.394;10.414;2023-04-03T15:26:29;3.72;;;1.00;;
39518;SDS011;25200;53.394;10.414;2023-04-03T15:28:56;6.72;;;1.10;;
39518;SDS011;25200;53.394;10.414;2023-04-03T15:31:22;2.90;;;0.98;;
39518;SDS011;25200;53.394;10.414;2023-04-03T15:33:48;2.88;;;1.20;;
39518;SDS011;25200;53.394;10.414;2023-04-03T15:36:13;4.60;;;0.95;;
39518;SDS011;25200;53.394;10.414;2023-04-03T15:38:39;2.80;;;0.90;;
39518;SDS011;25200;53.394;10.414;2023-04-03T15:41:05;4.30;;;0.90;;
39518;SDS011;25200;53.394;10.414;2023-04-03T15:43:30;1.48;;;0.60;;
39518;SDS011;25200;53.394;10.414;2023-04-03T15:45:58;3.47;;;0.70;;
39518;SDS011;25200;53.394;10.414;2023-04-03T15:48:25;3.45;;;1.02;;
39518;SDS011;25200;53.394;10.414;2023-04-03T15:50:51;2.15;;;0.85;;
39518;SDS011;25200;53.394;10.414;2023-04-03T15:53:17;2.33;;;0.82;;
39518;SDS011;25200;53.394;10.414;2023-04-03T15:55:43;3.42;;;0.75;;
39518;SDS011;25200;53.394;10.414;2023-04-03T15:58:08;3.50;;;0.82;;
39518;SDS011;25200;53.394;10.414;2023-04-03T16:00:35;4.65;;;1.17;;
39518;SDS011;25200;53.394;10.414;2023-04-03T16:03:05;2.95;;;0.85;;
39518;SDS011;25200;53.394;10.414;2023-04-03T16:05:34;4.65;;;1.50;;
39518;SDS011;25200;53.394;10.414;2023-04-03T16:08:01;2.80;;;0.75;;
39518;SDS011;25200;53.394;10.414;2023-04-03T16:10:28;4.15;;;1.20;;
39518;SDS011;25200;53.394;10.414;2023-04-03T16:12:54;2.53;;;0.93;;
39518;SDS011;25200;53.394;10.414;2023-04-03T16:15:20;5.85;;;1.25;;
39518;SDS011;25200;53.394;10.414;2023-04-03T16:17:45;5.50;;;1.20;;
39518;SDS011;25200;53.394;10.414;2023-04-03T16:20:13;2.22;;;0.73;;
39518;SDS011;25200;53.394;10.414;2023-04-03T16:22:39;3.38;;;1.00;;
39518;SDS011;25200;53.394;10.414;2023-04-03T16:25:06;3.50;;;1.10;;
39518;SDS011;25200;53.394;10.414;2023-04-03T16:27:32;4.20;;;0.90;;
39518;SDS011;25200;53.394;10.414;2023-04-03T16:29:58;5.47;;;1.10;;
39518;SDS011;25200;53.394;10.414;2023-04-03T16:32:25;5.18;;;1.08;;
39518;SDS011;25200;53.394;10.414;2023-04-03T16:34:53;3.38;;;1.20;;
39518;SDS011;25200;53.394;10.414;2023-04-03T16:37:19;3.63;;;0.90;;
39518;SDS011;25200;53.394;10.414;2023-04-03T16:39:45;4.82;;;1.08;;